首页
METAR-TAF:

METAR-TAF

机场 :

Phoenix Deer Valley Airport

鳳凰城, 亞利桑那州, 美国

纬度: 33-41-25N, 经度: 112-03-56W, 海拔: 450米

当前天气观测

该预报发布于45分钟前的08:53 UTC
静风
温度 11°C
湿度 62%
气压 1020 hPa
能見度: 16.1公里
天空无云

METAR: KDVT 260853Z AUTO 00000KT 10SM CLR 11/04 A3011 RMK AO2 SLP184 T01060039 52003

时间: 02:38 (09:38 UTC)

预报

该预报发布于4小时和18分钟前的05:20 UTC
预报有效从26日的 06点(UTC)到 27日的 06点(UTC)
风速4节,风向东北
能見度: 10公里
散云层高于25000英尺
从 26日的 1800点(UTC)
风速5节,风向南转西南
能見度: 10公里
少量云层高于15000英尺
散云层高于25000英尺
从 27日的 0300点(UTC)
风速4节,风向东北
能見度: 10公里
散云层高于15000英尺
多云层高于25000英尺

TAF: KDVT 260520Z 2606/2706 05004KT P6SM SCT250 FM261800 20005KT P6SM FEW150 SCT250 FM270300 05004KT P6SM SCT150 BKN250

超过4000个机场的气象观测和天气预报(METAR&TAF报告)。

可查询的气象台以黄色和红色小点在地图上表示。

将鼠标移到小点上方,可查看气象台名称。

然后点击查看天气观测和预报。

如需切换地图:点击带黑十字的绿色按钮放大地图;点击带横线的绿色按钮缩小地图;或者点击绿色箭头查看邻近地区的地图。


METAR-TAF: